Walton, Canada
Current Conditions -  °F | °C
As of 1:00 PM on Monday 22 Dec 2014 (Local Time) from CYHZ Reporting Station
Light Snow Light Snow  
Wind Chill: 21°   Ceiling: 2000
Heat Index: 28°   Visibility: 15mi
Dew Point: 21°   Wind: 7mph
Humidity: 74%   Direction: 360°N
Pressure: 30.42"   Gusts: NA
Location:  45.22°N, 64.02°W
Report Text: CYHZ 221700Z 36006KT 340V110 15SM -SN OVC020 M02/M06 A3042 RMK SC8 SLP308
Loading
Personal Weather Stations






























Interactive Weather Map New forecast layout! Learn more

10-Day Weather Forecast

Advertisements
Track Severe Weather on mobile